sensor_id;sensor_type;location;lat;lon;timestamp;P1;durP1;ratioP1;P2;durP2;ratioP2
19278;SDS011;9773;47.062;15.446;2023-06-24T00:02:11;5.87;;;5.27;;
19278;SDS011;9773;47.062;15.446;2023-06-24T00:04:37;5.47;;;4.80;;
19278;SDS011;9773;47.062;15.446;2023-06-24T00:07:04;6.10;;;5.23;;
19278;SDS011;9773;47.062;15.446;2023-06-24T00:09:30;5.23;;;4.77;;
19278;SDS011;9773;47.062;15.446;2023-06-24T00:11:56;5.00;;;4.60;;
19278;SDS011;9773;47.062;15.446;2023-06-24T00:14:26;6.13;;;5.00;;
19278;SDS011;9773;47.062;15.446;2023-06-24T00:16:53;6.10;;;4.80;;
19278;SDS011;9773;47.062;15.446;2023-06-24T00:19:20;5.40;;;4.90;;
19278;SDS011;9773;47.062;15.446;2023-06-24T00:21:46;5.13;;;4.63;;
19278;SDS011;9773;47.062;15.446;2023-06-24T00:24:16;5.40;;;4.90;;
19278;SDS011;9773;47.062;15.446;2023-06-24T00:26:46;5.43;;;4.93;;
19278;SDS011;9773;47.062;15.446;2023-06-24T00:29:12;5.47;;;4.97;;
19278;SDS011;9773;47.062;15.446;2023-06-24T00:31:38;5.43;;;4.93;;
19278;SDS011;9773;47.062;15.446;2023-06-24T00:34:04;5.60;;;5.10;;
19278;SDS011;9773;47.062;15.446;2023-06-24T00:36:30;5.00;;;4.60;;
19278;SDS011;9773;47.062;15.446;2023-06-24T00:39:00;5.67;;;5.10;;
19278;SDS011;9773;47.062;15.446;2023-06-24T00:41:27;5.90;;;5.30;;
19278;SDS011;9773;47.062;15.446;2023-06-24T00:43:52;5.20;;;4.80;;
19278;SDS011;9773;47.062;15.446;2023-06-24T00:46:18;5.27;;;4.83;;
19278;SDS011;9773;47.062;15.446;2023-06-24T00:48:44;5.23;;;4.57;;
19278;SDS011;9773;47.062;15.446;2023-06-24T00:51:10;6.53;;;5.50;;
19278;SDS011;9773;47.062;15.446;2023-06-24T00:53:36;5.70;;;5.03;;
19278;SDS011;9773;47.062;15.446;2023-06-24T00:56:02;7.57;;;4.67;;
19278;SDS011;9773;47.062;15.446;2023-06-24T00:58:29;5.43;;;5.00;;
19278;SDS011;9773;47.062;15.446;2023-06-24T01:00:57;5.27;;;4.73;;
19278;SDS011;9773;47.062;15.446;2023-06-24T01:03:24;5.37;;;4.90;;
19278;SDS011;9773;47.062;15.446;2023-06-24T01:05:50;6.30;;;5.57;;
19278;SDS011;9773;47.062;15.446;2023-06-24T01:08:17;5.50;;;5.00;;
19278;SDS011;9773;47.062;15.446;2023-06-24T01:10:44;6.40;;;4.97;;
19278;SDS011;9773;47.062;15.446;2023-06-24T01:13:10;6.47;;;4.50;;
19278;SDS011;9773;47.062;15.446;2023-06-24T01:15:36;4.73;;;4.40;;
19278;SDS011;9773;47.062;15.446;2023-06-24T01:18:05;6.63;;;5.10;;
19278;SDS011;9773;47.062;15.446;2023-06-24T01:26:50;4.90;;;4.50;;
19278;SDS011;9773;47.062;15.446;2023-06-24T01:35:06;4.90;;;4.50;;
19278;SDS011;9773;47.062;15.446;2023-06-24T01:37:52;4.90;;;4.50;;
19278;SDS011;9773;47.062;15.446;2023-06-24T01:40:29;5.70;;;5.10;;
19278;SDS011;9773;47.062;15.446;2023-06-24T01:43:00;5.03;;;4.63;;
19278;SDS011;9773;47.062;15.446;2023-06-24T01:45:29;4.83;;;4.43;;
19278;SDS011;9773;47.062;15.446;2023-06-24T01:48:18;5.37;;;4.87;;
19278;SDS011;9773;47.062;15.446;2023-06-24T01:51:00;5.30;;;4.83;;
19278;SDS011;9773;47.062;15.446;2023-06-24T01:53:31;5.20;;;4.80;;
19278;SDS011;9773;47.062;15.446;2023-06-24T01:56:01;4.90;;;4.50;;
19278;SDS011;9773;47.062;15.446;2023-06-24T01:58:28;5.23;;;4.70;;
19278;SDS011;9773;47.062;15.446;2023-06-24T02:00:56;5.73;;;5.13;;
19278;SDS011;9773;47.062;15.446;2023-06-24T02:03:23;4.53;;;4.13;;
19278;SDS011;9773;47.062;15.446;2023-06-24T02:05:50;5.80;;;5.27;;
19278;SDS011;9773;47.062;15.446;2023-06-24T02:08:18;5.37;;;4.97;;
19278;SDS011;9773;47.062;15.446;2023-06-24T02:10:46;7.30;;;5.00;;
19278;SDS011;9773;47.062;15.446;2023-06-24T02:13:14;5.30;;;4.90;;
19278;SDS011;9773;47.062;15.446;2023-06-24T02:15:42;4.93;;;4.40;;
19278;SDS011;9773;47.062;15.446;2023-06-24T02:18:11;6.30;;;5.07;;
19278;SDS011;9773;47.062;15.446;2023-06-24T02:20:38;5.20;;;4.70;;
19278;SDS011;9773;47.062;15.446;2023-06-24T02:23:06;5.30;;;4.80;;
19278;SDS011;9773;47.062;15.446;2023-06-24T02:25:34;5.33;;;4.67;;
19278;SDS011;9773;47.062;15.446;2023-06-24T02:28:04;5.20;;;4.80;;
19278;SDS011;9773;47.062;15.446;2023-06-24T02:30:31;5.47;;;4.97;;
19278;SDS011;9773;47.062;15.446;2023-06-24T02:32:59;5.43;;;4.93;;
19278;SDS011;9773;47.062;15.446;2023-06-24T02:35:25;5.30;;;4.87;;
19278;SDS011;9773;47.062;15.446;2023-06-24T02:37:50;6.23;;;5.20;;
19278;SDS011;9773;47.062;15.446;2023-06-24T02:40:16;5.60;;;4.83;;
19278;SDS011;9773;47.062;15.446;2023-06-24T02:42:42;6.17;;;5.13;;
19278;SDS011;9773;47.062;15.446;2023-06-24T02:45:08;5.33;;;4.83;;
19278;SDS011;9773;47.062;15.446;2023-06-24T02:47:35;5.63;;;5.13;;
19278;SDS011;9773;47.062;15.446;2023-06-24T02:50:02;5.27;;;4.87;;
19278;SDS011;9773;47.062;15.446;2023-06-24T02:52:30;5.73;;;5.23;;
19278;SDS011;9773;47.062;15.446;2023-06-24T02:54:56;5.73;;;4.67;;
19278;SDS011;9773;47.062;15.446;2023-06-24T02:57:23;7.07;;;5.20;;
19278;SDS011;9773;47.062;15.446;2023-06-24T02:59:50;6.03;;;5.03;;
19278;SDS011;9773;47.062;15.446;2023-06-24T03:02:16;6.00;;;5.27;;
19278;SDS011;9773;47.062;15.446;2023-06-24T03:04:42;6.60;;;5.33;;
19278;SDS011;9773;47.062;15.446;2023-06-24T03:07:09;5.50;;;5.10;;
19278;SDS011;9773;47.062;15.446;2023-06-24T03:09:36;5.87;;;5.37;;
19278;SDS011;9773;47.062;15.446;2023-06-24T03:12:02;5.70;;;5.20;;
19278;SDS011;9773;47.062;15.446;2023-06-24T03:14:28;6.37;;;5.77;;
19278;SDS011;9773;47.062;15.446;2023-06-24T03:16:53;8.17;;;5.83;;
19278;SDS011;9773;47.062;15.446;2023-06-24T03:19:19;6.67;;;6.07;;
19278;SDS011;9773;47.062;15.446;2023-06-24T03:21:45;6.53;;;5.90;;
19278;SDS011;9773;47.062;15.446;2023-06-24T03:24:10;6.60;;;6.00;;
19278;SDS011;9773;47.062;15.446;2023-06-24T03:26:39;6.47;;;5.57;;
19278;SDS011;9773;47.062;15.446;2023-06-24T03:29:05;6.50;;;5.90;;
19278;SDS011;9773;47.062;15.446;2023-06-24T03:31:34;6.87;;;6.27;;
19278;SDS011;9773;47.062;15.446;2023-06-24T03:33:59;6.43;;;5.57;;
19278;SDS011;9773;47.062;15.446;2023-06-24T03:36:25;6.57;;;5.97;;
19278;SDS011;9773;47.062;15.446;2023-06-24T03:38:51;7.07;;;5.73;;
19278;SDS011;9773;47.062;15.446;2023-06-24T03:41:17;6.17;;;5.57;;
19278;SDS011;9773;47.062;15.446;2023-06-24T03:43:43;5.60;;;5.20;;
19278;SDS011;9773;47.062;15.446;2023-06-24T03:46:10;5.27;;;4.87;;
19278;SDS011;9773;47.062;15.446;2023-06-24T03:48:36;6.17;;;5.67;;
19278;SDS011;9773;47.062;15.446;2023-06-24T03:51:02;5.53;;;5.03;;
19278;SDS011;9773;47.062;15.446;2023-06-24T03:53:28;6.00;;;5.50;;
19278;SDS011;9773;47.062;15.446;2023-06-24T03:55:53;6.00;;;5.50;;
19278;SDS011;9773;47.062;15.446;2023-06-24T03:58:19;6.00;;;5.50;;
19278;SDS011;9773;47.062;15.446;2023-06-24T04:00:46;6.43;;;5.53;;
19278;SDS011;9773;47.062;15.446;2023-06-24T04:03:14;5.93;;;5.43;;
19278;SDS011;9773;47.062;15.446;2023-06-24T04:05:43;5.97;;;5.47;;
19278;SDS011;9773;47.062;15.446;2023-06-24T04:08:09;5.53;;;5.13;;
19278;SDS011;9773;47.062;15.446;2023-06-24T04:10:35;5.90;;;5.40;;
19278;SDS011;9773;47.062;15.446;2023-06-24T04:13:01;6.53;;;5.67;;
19278;SDS011;9773;47.062;15.446;2023-06-24T04:15:26;5.77;;;5.27;;
19278;SDS011;9773;47.062;15.446;2023-06-24T04:17:52;5.93;;;5.40;;
19278;SDS011;9773;47.062;15.446;2023-06-24T04:20:18;5.20;;;4.70;;
19278;SDS011;9773;47.062;15.446;2023-06-24T04:22:43;6.13;;;5.57;;
19278;SDS011;9773;47.062;15.446;2023-06-24T04:25:09;5.70;;;5.30;;
19278;SDS011;9773;47.062;15.446;2023-06-24T04:27:35;6.77;;;5.17;;
19278;SDS011;9773;47.062;15.446;2023-06-24T04:30:01;5.80;;;5.30;;
19278;SDS011;9773;47.062;15.446;2023-06-24T04:32:28;5.50;;;5.10;;
19278;SDS011;9773;47.062;15.446;2023-06-24T04:34:54;6.80;;;5.07;;
19278;SDS011;9773;47.062;15.446;2023-06-24T04:37:20;5.50;;;5.10;;
19278;SDS011;9773;47.062;15.446;2023-06-24T04:39:45;5.17;;;4.77;;
19278;SDS011;9773;47.062;15.446;2023-06-24T04:42:11;6.20;;;5.23;;
19278;SDS011;9773;47.062;15.446;2023-06-24T04:44:37;5.47;;;4.87;;
19278;SDS011;9773;47.062;15.446;2023-06-24T04:47:03;6.00;;;5.50;;
19278;SDS011;9773;47.062;15.446;2023-06-24T04:49:29;6.07;;;5.00;;
19278;SDS011;9773;47.062;15.446;2023-06-24T04:51:54;4.97;;;4.47;;
19278;SDS011;9773;47.062;15.446;2023-06-24T04:54:20;5.70;;;5.10;;
19278;SDS011;9773;47.062;15.446;2023-06-24T04:56:46;6.60;;;4.90;;
19278;SDS011;9773;47.062;15.446;2023-06-24T04:59:13;5.40;;;4.80;;
19278;SDS011;9773;47.062;15.446;2023-06-24T05:01:39;5.97;;;4.63;;
19278;SDS011;9773;47.062;15.446;2023-06-24T05:04:05;5.00;;;4.57;;
19278;SDS011;9773;47.062;15.446;2023-06-24T05:06:30;5.20;;;4.70;;
19278;SDS011;9773;47.062;15.446;2023-06-24T05:08:56;5.90;;;4.80;;
19278;SDS011;9773;47.062;15.446;2023-06-24T05:11:22;5.47;;;5.07;;
19278;SDS011;9773;47.062;15.446;2023-06-24T05:13:48;5.07;;;4.70;;
19278;SDS011;9773;47.062;15.446;2023-06-24T05:16:13;5.20;;;4.90;;
19278;SDS011;9773;47.062;15.446;2023-06-24T05:18:39;5.10;;;4.70;;
19278;SDS011;9773;47.062;15.446;2023-06-24T05:21:05;6.70;;;4.67;;
19278;SDS011;9773;47.062;15.446;2023-06-24T05:23:31;5.23;;;4.20;;
19278;SDS011;9773;47.062;15.446;2023-06-24T05:25:57;6.90;;;4.63;;
19278;SDS011;9773;47.062;15.446;2023-06-24T05:28:22;4.93;;;4.53;;
19278;SDS011;9773;47.062;15.446;2023-06-24T05:30:48;4.83;;;4.43;;
19278;SDS011;9773;47.062;15.446;2023-06-24T05:33:14;4.90;;;4.40;;
19278;SDS011;9773;47.062;15.446;2023-06-24T05:35:40;4.87;;;4.17;;
19278;SDS011;9773;47.062;15.446;2023-06-24T05:38:08;5.10;;;4.37;;
19278;SDS011;9773;47.062;15.446;2023-06-24T05:40:34;4.47;;;4.07;;
19278;SDS011;9773;47.062;15.446;2023-06-24T05:42:59;4.97;;;4.57;;
19278;SDS011;9773;47.062;15.446;2023-06-24T05:45:26;4.83;;;4.17;;
19278;SDS011;9773;47.062;15.446;2023-06-24T05:47:52;5.43;;;5.03;;
19278;SDS011;9773;47.062;15.446;2023-06-24T05:50:17;4.93;;;4.63;;
19278;SDS011;9773;47.062;15.446;2023-06-24T05:52:43;5.13;;;4.73;;
19278;SDS011;9773;47.062;15.446;2023-06-24T05:55:09;6.47;;;5.07;;
19278;SDS011;9773;47.062;15.446;2023-06-24T05:57:36;6.63;;;5.43;;
19278;SDS011;9773;47.062;15.446;2023-06-24T06:00:02;4.93;;;4.43;;
19278;SDS011;9773;47.062;15.446;2023-06-24T06:02:29;6.20;;;5.60;;
19278;SDS011;9773;47.062;15.446;2023-06-24T06:04:55;6.43;;;5.60;;
19278;SDS011;9773;47.062;15.446;2023-06-24T06:07:21;5.43;;;5.00;;
19278;SDS011;9773;47.062;15.446;2023-06-24T06:09:46;5.03;;;4.63;;
19278;SDS011;9773;47.062;15.446;2023-06-24T06:12:12;5.40;;;5.00;;
19278;SDS011;9773;47.062;15.446;2023-06-24T06:14:38;5.00;;;4.60;;
19278;SDS011;9773;47.062;15.446;2023-06-24T06:17:04;4.70;;;4.40;;
19278;SDS011;9773;47.062;15.446;2023-06-24T06:19:30;5.80;;;5.20;;
19278;SDS011;9773;47.062;15.446;2023-06-24T06:21:55;5.53;;;4.63;;
19278;SDS011;9773;47.062;15.446;2023-06-24T06:24:21;4.90;;;4.60;;
19278;SDS011;9773;47.062;15.446;2023-06-24T06:26:47;5.10;;;4.70;;
19278;SDS011;9773;47.062;15.446;2023-06-24T06:29:13;5.50;;;4.30;;
19278;SDS011;9773;47.062;15.446;2023-06-24T06:31:38;5.00;;;4.50;;
19278;SDS011;9773;47.062;15.446;2023-06-24T06:34:04;4.63;;;4.23;;
19278;SDS011;9773;47.062;15.446;2023-06-24T06:36:30;4.03;;;3.73;;
19278;SDS011;9773;47.062;15.446;2023-06-24T06:38:56;3.90;;;3.60;;
19278;SDS011;9773;47.062;15.446;2023-06-24T06:41:22;3.80;;;3.57;;
19278;SDS011;9773;47.062;15.446;2023-06-24T06:43:53;5.10;;;4.60;;
19278;SDS011;9773;47.062;15.446;2023-06-24T06:46:19;4.90;;;4.07;;
19278;SDS011;9773;47.062;15.446;2023-06-24T06:48:45;4.17;;;3.87;;
19278;SDS011;9773;47.062;15.446;2023-06-24T06:51:12;4.90;;;4.50;;
19278;SDS011;9773;47.062;15.446;2023-06-24T06:53:38;5.10;;;4.10;;
19278;SDS011;9773;47.062;15.446;2023-06-24T06:56:04;4.50;;;4.20;;
19278;SDS011;9773;47.062;15.446;2023-06-24T06:58:30;4.20;;;3.90;;
19278;SDS011;9773;47.062;15.446;2023-06-24T07:00:56;4.57;;;4.17;;
19278;SDS011;9773;47.062;15.446;2023-06-24T07:03:26;3.93;;;3.47;;
19278;SDS011;9773;47.062;15.446;2023-06-24T07:05:53;3.73;;;3.53;;
19278;SDS011;9773;47.062;15.446;2023-06-24T07:08:19;3.53;;;3.30;;
19278;SDS011;9773;47.062;15.446;2023-06-24T07:10:45;3.60;;;3.37;;
19278;SDS011;9773;47.062;15.446;2023-06-24T07:13:10;2.87;;;2.77;;
19278;SDS011;9773;47.062;15.446;2023-06-24T07:15:36;3.20;;;2.90;;
19278;SDS011;9773;47.062;15.446;2023-06-24T07:18:02;2.70;;;2.60;;
19278;SDS011;9773;47.062;15.446;2023-06-24T07:20:27;3.30;;;3.10;;
19278;SDS011;9773;47.062;15.446;2023-06-24T07:22:53;1.53;;;1.40;;
19278;SDS011;9773;47.062;15.446;2023-06-24T07:25:19;1.40;;;1.40;;
19278;SDS011;9773;47.062;15.446;2023-06-24T07:27:45;1.17;;;1.17;;
19278;SDS011;9773;47.062;15.446;2023-06-24T07:30:10;1.17;;;1.17;;
19278;SDS011;9773;47.062;15.446;2023-06-24T07:32:36;1.30;;;1.30;;
19278;SDS011;9773;47.062;15.446;2023-06-24T07:35:02;0.90;;;0.90;;
19278;SDS011;9773;47.062;15.446;2023-06-24T07:37:28;0.90;;;0.90;;
19278;SDS011;9773;47.062;15.446;2023-06-24T07:39:54;0.70;;;0.70;;
19278;SDS011;9773;47.062;15.446;2023-06-24T07:42:20;0.80;;;0.80;;
19278;SDS011;9773;47.062;15.446;2023-06-24T07:44:46;1.40;;;0.47;;
19278;SDS011;9773;47.062;15.446;2023-06-24T07:47:12;0.63;;;0.63;;
19278;SDS011;9773;47.062;15.446;2023-06-24T07:49:38;0.40;;;0.40;;
19278;SDS011;9773;47.062;15.446;2023-06-24T07:52:04;0.50;;;0.50;;
19278;SDS011;9773;47.062;15.446;2023-06-24T07:54:31;1.20;;;0.30;;
19278;SDS011;9773;47.062;15.446;2023-06-24T07:56:57;0.40;;;0.40;;
19278;SDS011;9773;47.062;15.446;2023-06-24T07:59:23;0.50;;;0.50;;
19278;SDS011;9773;47.062;15.446;2023-06-24T08:01:50;0.40;;;0.40;;
19278;SDS011;9773;47.062;15.446;2023-06-24T08:04:15;0.30;;;0.30;;
19278;SDS011;9773;47.062;15.446;2023-06-24T08:06:41;0.50;;;0.50;;
19278;SDS011;9773;47.062;15.446;2023-06-24T08:09:08;0.67;;;0.40;;
19278;SDS011;9773;47.062;15.446;2023-06-24T08:11:34;0.30;;;0.30;;
19278;SDS011;9773;47.062;15.446;2023-06-24T08:13:59;0.30;;;0.30;;
19278;SDS011;9773;47.062;15.446;2023-06-24T08:16:27;0.23;;;0.20;;
19278;SDS011;9773;47.062;15.446;2023-06-24T08:18:52;0.30;;;0.30;;
19278;SDS011;9773;47.062;15.446;2023-06-24T08:21:20;0.47;;;0.43;;
19278;SDS011;9773;47.062;15.446;2023-06-24T08:23:46;0.30;;;0.30;;
19278;SDS011;9773;47.062;15.446;2023-06-24T08:26:11;1.40;;;0.50;;
19278;SDS011;9773;47.062;15.446;2023-06-24T08:28:37;0.27;;;0.20;;
19278;SDS011;9773;47.062;15.446;2023-06-24T08:31:03;1.50;;;1.40;;
19278;SDS011;9773;47.062;15.446;2023-06-24T08:33:29;0.40;;;0.40;;
19278;SDS011;9773;47.062;15.446;2023-06-24T08:35:55;1.30;;;0.40;;
19278;SDS011;9773;47.062;15.446;2023-06-24T08:38:20;0.60;;;0.60;;
19278;SDS011;9773;47.062;15.446;2023-06-24T08:40:46;1.37;;;1.27;;
19278;SDS011;9773;47.062;15.446;2023-06-24T08:43:14;0.43;;;0.43;;
19278;SDS011;9773;47.062;15.446;2023-06-24T08:45:40;0.30;;;0.30;;
19278;SDS011;9773;47.062;15.446;2023-06-24T08:48:05;0.93;;;0.93;;
19278;SDS011;9773;47.062;15.446;2023-06-24T08:50:35;0.40;;;0.40;;
19278;SDS011;9773;47.062;15.446;2023-06-24T08:53:06;0.40;;;0.40;;
19278;SDS011;9773;47.062;15.446;2023-06-24T08:55:40;0.27;;;0.27;;
19278;SDS011;9773;47.062;15.446;2023-06-24T08:58:08;1.30;;;0.50;;
19278;SDS011;9773;47.062;15.446;2023-06-24T09:00:34;0.40;;;0.40;;
19278;SDS011;9773;47.062;15.446;2023-06-24T09:03:00;0.30;;;0.30;;
19278;SDS011;9773;47.062;15.446;2023-06-24T09:05:26;0.87;;;0.20;;
19278;SDS011;9773;47.062;15.446;2023-06-24T09:07:52;0.30;;;0.30;;
19278;SDS011;9773;47.062;15.446;2023-06-24T09:10:30;0.20;;;0.20;;
19278;SDS011;9773;47.062;15.446;2023-06-24T09:12:58;0.20;;;0.20;;
19278;SDS011;9773;47.062;15.446;2023-06-24T09:15:34;0.37;;;0.37;;
19278;SDS011;9773;47.062;15.446;2023-06-24T09:18:02;0.17;;;0.17;;
19278;SDS011;9773;47.062;15.446;2023-06-24T09:20:32;0.23;;;0.23;;
19278;SDS011;9773;47.062;15.446;2023-06-24T09:23:04;0.73;;;0.73;;
19278;SDS011;9773;47.062;15.446;2023-06-24T09:25:30;0.30;;;0.30;;
19278;SDS011;9773;47.062;15.446;2023-06-24T09:28:02;0.43;;;0.43;;
19278;SDS011;9773;47.062;15.446;2023-06-24T09:30:29;0.80;;;0.80;;
19278;SDS011;9773;47.062;15.446;2023-06-24T09:32:55;0.50;;;0.50;;
19278;SDS011;9773;47.062;15.446;2023-06-24T09:35:22;0.57;;;0.57;;
19278;SDS011;9773;47.062;15.446;2023-06-24T09:37:50;0.50;;;0.50;;
19278;SDS011;9773;47.062;15.446;2023-06-24T09:40:16;0.27;;;0.27;;
19278;SDS011;9773;47.062;15.446;2023-06-24T09:45:21;0.30;;;0.30;;
19278;SDS011;9773;47.062;15.446;2023-06-24T09:47:49;0.30;;;0.30;;
19278;SDS011;9773;47.062;15.446;2023-06-24T09:50:15;1.23;;;0.20;;
19278;SDS011;9773;47.062;15.446;2023-06-24T09:52:42;0.30;;;0.30;;
19278;SDS011;9773;47.062;15.446;2023-06-24T09:55:09;0.40;;;0.40;;
19278;SDS011;9773;47.062;15.446;2023-06-24T09:57:38;0.30;;;0.30;;
19278;SDS011;9773;47.062;15.446;2023-06-24T10:00:06;0.27;;;0.27;;
19278;SDS011;9773;47.062;15.446;2023-06-24T10:02:32;0.13;;;0.13;;
19278;SDS011;9773;47.062;15.446;2023-06-24T10:04:59;1.07;;;0.47;;
19278;SDS011;9773;47.062;15.446;2023-06-24T10:07:27;0.50;;;0.50;;
19278;SDS011;9773;47.062;15.446;2023-06-24T10:09:54;0.10;;;0.10;;
19278;SDS011;9773;47.062;15.446;2023-06-24T10:12:20;0.33;;;0.33;;
19278;SDS011;9773;47.062;15.446;2023-06-24T10:14:46;0.30;;;0.30;;
19278;SDS011;9773;47.062;15.446;2023-06-24T10:17:13;0.20;;;0.20;;
19278;SDS011;9773;47.062;15.446;2023-06-24T10:19:39;0.20;;;0.20;;
19278;SDS011;9773;47.062;15.446;2023-06-24T10:22:09;0.20;;;0.20;;
19278;SDS011;9773;47.062;15.446;2023-06-24T10:24:39;0.10;;;0.10;;
19278;SDS011;9773;47.062;15.446;2023-06-24T10:27:16;0.17;;;0.17;;
19278;SDS011;9773;47.062;15.446;2023-06-24T10:29:47;0.30;;;0.20;;
19278;SDS011;9773;47.062;15.446;2023-06-24T10:32:17;0.10;;;0.10;;
19278;SDS011;9773;47.062;15.446;2023-06-24T10:34:45;0.10;;;0.10;;
19278;SDS011;9773;47.062;15.446;2023-06-24T10:39:57;0.30;;;0.30;;
19278;SDS011;9773;47.062;15.446;2023-06-24T10:47:39;0.20;;;0.20;;
19278;SDS011;9773;47.062;15.446;2023-06-24T10:50:07;0.97;;;0.30;;
19278;SDS011;9773;47.062;15.446;2023-06-24T10:52:41;0.33;;;0.33;;
19278;SDS011;9773;47.062;15.446;2023-06-24T10:55:09;0.30;;;0.30;;
19278;SDS011;9773;47.062;15.446;2023-06-24T10:57:35;0.40;;;0.40;;
19278;SDS011;9773;47.062;15.446;2023-06-24T11:00:02;0.20;;;0.20;;
19278;SDS011;9773;47.062;15.446;2023-06-24T11:02:28;0.50;;;0.50;;
19278;SDS011;9773;47.062;15.446;2023-06-24T11:04:55;0.60;;;0.60;;
19278;SDS011;9773;47.062;15.446;2023-06-24T11:07:23;0.20;;;0.20;;
19278;SDS011;9773;47.062;15.446;2023-06-24T11:09:53;0.20;;;0.20;;
19278;SDS011;9773;47.062;15.446;2023-06-24T11:12:24;0.30;;;0.30;;
19278;SDS011;9773;47.062;15.446;2023-06-24T11:15:01;0.10;;;0.10;;
19278;SDS011;9773;47.062;15.446;2023-06-24T11:17:32;0.30;;;0.30;;
19278;SDS011;9773;47.062;15.446;2023-06-24T11:19:58;0.40;;;0.30;;
19278;SDS011;9773;47.062;15.446;2023-06-24T11:22:25;0.10;;;0.10;;
19278;SDS011;9773;47.062;15.446;2023-06-24T11:24:51;0.40;;;0.33;;
19278;SDS011;9773;47.062;15.446;2023-06-24T11:27:23;0.13;;;0.13;;
19278;SDS011;9773;47.062;15.446;2023-06-24T11:29:53;0.20;;;0.20;;
19278;SDS011;9773;47.062;15.446;2023-06-24T11:32:20;0.20;;;0.20;;
19278;SDS011;9773;47.062;15.446;2023-06-24T11:34:46;0.40;;;0.40;;
19278;SDS011;9773;47.062;15.446;2023-06-24T11:37:13;0.17;;;0.17;;
19278;SDS011;9773;47.062;15.446;2023-06-24T11:39:41;0.10;;;0.10;;
19278;SDS011;9773;47.062;15.446;2023-06-24T11:42:08;0.20;;;0.20;;
19278;SDS011;9773;47.062;15.446;2023-06-24T11:44:34;0.20;;;0.20;;
19278;SDS011;9773;47.062;15.446;2023-06-24T11:47:05;0.30;;;0.30;;
19278;SDS011;9773;47.062;15.446;2023-06-24T11:49:31;1.50;;;0.33;;
19278;SDS011;9773;47.062;15.446;2023-06-24T11:51:57;1.37;;;0.20;;
19278;SDS011;9773;47.062;15.446;2023-06-24T11:54:22;0.80;;;0.80;;
19278;SDS011;9773;47.062;15.446;2023-06-24T11:56:50;0.30;;;0.30;;
19278;SDS011;9773;47.062;15.446;2023-06-24T11:59:18;0.40;;;0.40;;
19278;SDS011;9773;47.062;15.446;2023-06-24T12:01:54;0.30;;;0.30;;
19278;SDS011;9773;47.062;15.446;2023-06-24T12:04:21;0.53;;;0.23;;
19278;SDS011;9773;47.062;15.446;2023-06-24T12:06:52;0.30;;;0.30;;
19278;SDS011;9773;47.062;15.446;2023-06-24T12:09:17;0.20;;;0.20;;
19278;SDS011;9773;47.062;15.446;2023-06-24T12:11:43;0.40;;;0.40;;
19278;SDS011;9773;47.062;15.446;2023-06-24T12:14:09;0.20;;;0.20;;
19278;SDS011;9773;47.062;15.446;2023-06-24T12:16:34;0.40;;;0.30;;
19278;SDS011;9773;47.062;15.446;2023-06-24T12:19:00;0.27;;;0.27;;
19278;SDS011;9773;47.062;15.446;2023-06-24T12:21:27;0.20;;;0.20;;
19278;SDS011;9773;47.062;15.446;2023-06-24T12:23:52;0.83;;;0.40;;
19278;SDS011;9773;47.062;15.446;2023-06-24T12:26:18;0.20;;;0.20;;
19278;SDS011;9773;47.062;15.446;2023-06-24T12:28:44;0.37;;;0.37;;
19278;SDS011;9773;47.062;15.446;2023-06-24T12:31:10;0.30;;;0.30;;
19278;SDS011;9773;47.062;15.446;2023-06-24T12:33:36;0.30;;;0.30;;
19278;SDS011;9773;47.062;15.446;2023-06-24T12:36:02;0.13;;;0.13;;
19278;SDS011;9773;47.062;15.446;2023-06-24T12:38:28;0.87;;;0.50;;
19278;SDS011;9773;47.062;15.446;2023-06-24T12:40:54;0.40;;;0.40;;
19278;SDS011;9773;47.062;15.446;2023-06-24T12:43:20;1.50;;;0.33;;
19278;SDS011;9773;47.062;15.446;2023-06-24T12:45:45;0.60;;;0.60;;
19278;SDS011;9773;47.062;15.446;2023-06-24T12:48:12;1.00;;;0.70;;
19278;SDS011;9773;47.062;15.446;2023-06-24T12:50:38;0.47;;;0.47;;
19278;SDS011;9773;47.062;15.446;2023-06-24T12:53:04;0.30;;;0.30;;
19278;SDS011;9773;47.062;15.446;2023-06-24T12:55:30;1.03;;;0.30;;
19278;SDS011;9773;47.062;15.446;2023-06-24T12:57:56;0.33;;;0.27;;
19278;SDS011;9773;47.062;15.446;2023-06-24T13:00:23;0.20;;;0.20;;
19278;SDS011;9773;47.062;15.446;2023-06-24T13:02:49;0.20;;;0.20;;
19278;SDS011;9773;47.062;15.446;2023-06-24T13:05:16;0.47;;;0.47;;
19278;SDS011;9773;47.062;15.446;2023-06-24T13:07:43;0.40;;;0.40;;
19278;SDS011;9773;47.062;15.446;2023-06-24T13:10:09;0.40;;;0.40;;
19278;SDS011;9773;47.062;15.446;2023-06-24T13:12:35;0.33;;;0.33;;
19278;SDS011;9773;47.062;15.446;2023-06-24T13:15:02;0.20;;;0.20;;
19278;SDS011;9773;47.062;15.446;2023-06-24T13:17:29;0.23;;;0.23;;
19278;SDS011;9773;47.062;15.446;2023-06-24T13:19:55;1.40;;;0.43;;
19278;SDS011;9773;47.062;15.446;2023-06-24T13:22:22;0.37;;;0.30;;
19278;SDS011;9773;47.062;15.446;2023-06-24T13:24:48;0.50;;;0.50;;
19278;SDS011;9773;47.062;15.446;2023-06-24T13:27:14;0.40;;;0.40;;
19278;SDS011;9773;47.062;15.446;2023-06-24T13:29:41;0.40;;;0.40;;
19278;SDS011;9773;47.062;15.446;2023-06-24T13:32:07;0.40;;;0.40;;
19278;SDS011;9773;47.062;15.446;2023-06-24T13:34:33;0.23;;;0.23;;
19278;SDS011;9773;47.062;15.446;2023-06-24T13:37:00;0.40;;;0.40;;
19278;SDS011;9773;47.062;15.446;2023-06-24T13:39:25;0.30;;;0.30;;
19278;SDS011;9773;47.062;15.446;2023-06-24T13:41:52;0.30;;;0.30;;
19278;SDS011;9773;47.062;15.446;2023-06-24T13:44:18;0.57;;;0.57;;
19278;SDS011;9773;47.062;15.446;2023-06-24T13:46:44;0.30;;;0.30;;
19278;SDS011;9773;47.062;15.446;2023-06-24T13:49:10;0.60;;;0.60;;
19278;SDS011;9773;47.062;15.446;2023-06-24T13:51:37;0.53;;;0.53;;
19278;SDS011;9773;47.062;15.446;2023-06-24T13:54:02;0.40;;;0.40;;
19278;SDS011;9773;47.062;15.446;2023-06-24T13:56:29;0.50;;;0.50;;
19278;SDS011;9773;47.062;15.446;2023-06-24T13:58:55;0.60;;;0.60;;
19278;SDS011;9773;47.062;15.446;2023-06-24T14:01:21;0.80;;;0.80;;
19278;SDS011;9773;47.062;15.446;2023-06-24T14:03:47;0.50;;;0.50;;
19278;SDS011;9773;47.062;15.446;2023-06-24T14:06:14;0.60;;;0.60;;
19278;SDS011;9773;47.062;15.446;2023-06-24T14:08:42;0.50;;;0.50;;
19278;SDS011;9773;47.062;15.446;2023-06-24T14:11:08;0.60;;;0.60;;
19278;SDS011;9773;47.062;15.446;2023-06-24T14:13:34;0.73;;;0.73;;
19278;SDS011;9773;47.062;15.446;2023-06-24T14:16:01;0.67;;;0.67;;
19278;SDS011;9773;47.062;15.446;2023-06-24T14:18:28;0.80;;;0.80;;
19278;SDS011;9773;47.062;15.446;2023-06-24T14:20:57;0.80;;;0.80;;
19278;SDS011;9773;47.062;15.446;2023-06-24T14:23:27;0.70;;;0.70;;
19278;SDS011;9773;47.062;15.446;2023-06-24T14:25:53;0.73;;;0.73;;
19278;SDS011;9773;47.062;15.446;2023-06-24T14:28:20;0.83;;;0.83;;
19278;SDS011;9773;47.062;15.446;2023-06-24T14:30:46;0.90;;;0.90;;
19278;SDS011;9773;47.062;15.446;2023-06-24T14:33:12;0.63;;;0.63;;
19278;SDS011;9773;47.062;15.446;2023-06-24T14:35:38;0.80;;;0.80;;
19278;SDS011;9773;47.062;15.446;2023-06-24T14:38:06;0.70;;;0.70;;
19278;SDS011;9773;47.062;15.446;2023-06-24T14:40:32;0.87;;;0.87;;
19278;SDS011;9773;47.062;15.446;2023-06-24T14:42:58;0.60;;;0.60;;
19278;SDS011;9773;47.062;15.446;2023-06-24T14:45:24;0.80;;;0.80;;
19278;SDS011;9773;47.062;15.446;2023-06-24T14:47:50;0.77;;;0.77;;
19278;SDS011;9773;47.062;15.446;2023-06-24T14:50:16;1.53;;;0.80;;
19278;SDS011;9773;47.062;15.446;2023-06-24T14:52:42;0.83;;;0.83;;
19278;SDS011;9773;47.062;15.446;2023-06-24T14:55:08;0.80;;;0.80;;
19278;SDS011;9773;47.062;15.446;2023-06-24T14:57:34;0.70;;;0.70;;
19278;SDS011;9773;47.062;15.446;2023-06-24T15:00:01;0.80;;;0.80;;
19278;SDS011;9773;47.062;15.446;2023-06-24T15:02:27;0.50;;;0.50;;
19278;SDS011;9773;47.062;15.446;2023-06-24T15:04:53;0.60;;;0.60;;
19278;SDS011;9773;47.062;15.446;2023-06-24T15:07:18;0.57;;;0.57;;
19278;SDS011;9773;47.062;15.446;2023-06-24T15:09:44;0.63;;;0.60;;